createdAt,value
2018-09-19T00:01:33.838Z,8.50
2018-09-19T00:06:37.253Z,8.80
2018-09-19T00:11:40.866Z,9.30
2018-09-19T00:16:44.330Z,9.73
2018-09-19T00:21:47.698Z,8.70
2018-09-19T00:26:51.029Z,9.57
2018-09-19T00:31:54.376Z,9.03
2018-09-19T00:36:57.827Z,9.90
2018-09-19T00:42:01.408Z,8.78
2018-09-19T00:47:04.831Z,8.50
2018-09-19T00:52:08.343Z,8.38
2018-09-19T00:57:11.758Z,9.10
2018-09-19T01:02:16.073Z,8.95
2018-09-19T01:07:19.513Z,8.77
2018-09-19T01:13:02.222Z,8.63
2018-09-19T01:18:05.838Z,7.95
2018-09-19T01:23:09.649Z,8.65
2018-09-19T01:28:14.511Z,8.60
2018-09-19T01:33:18.133Z,8.50
2018-09-19T01:38:21.603Z,9.20
2018-09-19T01:43:25.300Z,8.28
2018-09-19T01:48:28.567Z,7.40
2018-09-19T01:53:31.907Z,7.85
2018-09-19T01:58:35.248Z,7.47
2018-09-19T02:03:38.690Z,7.60
2018-09-19T02:08:42.094Z,7.42
2018-09-19T02:13:45.921Z,7.92
2018-09-19T02:18:49.320Z,7.20
2018-09-19T02:23:52.838Z,8.43
2018-09-19T02:28:56.196Z,8.40
2018-09-19T02:33:59.576Z,8.45
2018-09-19T02:39:02.942Z,8.27
2018-09-19T02:44:07.079Z,8.45
2018-09-19T02:49:10.429Z,8.90
2018-09-19T02:54:13.790Z,8.35
2018-09-19T02:59:17.261Z,7.70
2018-09-19T03:04:20.715Z,9.00
2018-09-19T03:09:24.796Z,8.60
2018-09-19T03:14:28.668Z,9.20
2018-09-19T03:19:32.030Z,9.20
2018-09-19T03:24:35.464Z,9.10
2018-09-19T03:29:41.107Z,9.00
2018-09-19T03:34:44.526Z,9.00
2018-09-19T03:39:47.902Z,9.90
2018-09-19T03:44:51.317Z,9.80
2018-09-19T03:49:54.806Z,9.33
2018-09-19T03:54:58.293Z,9.05
2018-09-19T04:00:01.709Z,10.25
2018-09-19T04:05:05.183Z,9.77
2018-09-19T04:10:08.482Z,9.40
2018-09-19T04:15:11.783Z,10.00
2018-09-19T04:20:15.140Z,10.63
2018-09-19T04:25:18.569Z,10.10
2018-09-19T04:30:22.475Z,10.30
2018-09-19T04:35:25.833Z,10.40
2018-09-19T04:40:29.853Z,10.47
2018-09-19T04:45:33.618Z,10.50
2018-09-19T04:50:37.615Z,10.40
2018-09-19T04:55:40.975Z,10.93
2018-09-19T05:00:46.437Z,9.50
2018-09-19T05:05:49.887Z,9.65
2018-09-19T05:10:53.258Z,10.93
2018-09-19T05:15:57.094Z,9.88
2018-09-19T05:21:01.308Z,11.25
2018-09-19T05:26:06.545Z,9.80
2018-09-19T05:31:10.848Z,9.35
2018-09-19T05:36:14.870Z,9.40
2018-09-19T05:41:18.964Z,9.10
2018-09-19T05:46:22.361Z,10.45
2018-09-19T05:51:25.674Z,10.25
2018-09-19T05:56:29.036Z,10.20
2018-09-19T06:01:33.051Z,9.33
2018-09-19T06:06:36.389Z,9.90
2018-09-19T06:11:40.089Z,9.23
2018-09-19T06:16:43.440Z,8.80
2018-09-19T06:21:46.812Z,8.10
2018-09-19T06:26:51.278Z,10.17
2018-09-19T06:31:54.670Z,8.70
2018-09-19T06:36:58.040Z,8.90
2018-09-19T06:42:01.489Z,8.00
2018-09-19T06:47:04.978Z,8.70
2018-09-19T06:52:08.541Z,7.80
2018-09-19T06:57:11.877Z,6.63
2018-09-19T07:02:15.461Z,6.67
2018-09-19T07:07:18.794Z,5.90
2018-09-19T07:12:22.288Z,6.13
2018-09-19T07:17:25.731Z,5.87
2018-09-19T07:22:29.093Z,5.15
2018-09-19T07:27:34.742Z,5.50
2018-09-19T07:32:38.193Z,5.80
2018-09-19T07:37:41.600Z,5.10
2018-09-19T07:42:44.987Z,5.10
2018-09-19T07:47:48.355Z,5.17
2018-09-19T07:52:51.664Z,5.00
2018-09-19T07:57:54.977Z,4.65
2018-09-19T08:02:58.298Z,4.50
2018-09-19T08:08:01.593Z,4.60
2018-09-19T08:13:07.915Z,4.77
2018-09-19T08:18:11.273Z,4.40
2018-09-19T08:23:14.575Z,4.20
2018-09-19T08:28:18.859Z,4.60
2018-09-19T08:33:22.277Z,4.40
2018-09-19T08:38:25.679Z,3.90
2018-09-19T08:43:31.155Z,4.08
2018-09-19T08:48:34.506Z,3.87
2018-09-19T08:53:37.852Z,3.90
2018-09-19T08:58:41.191Z,3.50
2018-09-19T09:03:44.680Z,3.67
2018-09-19T09:08:47.978Z,4.72
2018-09-19T09:13:51.279Z,3.80
2018-09-19T09:18:54.550Z,3.60
2018-09-19T09:24:02.578Z,3.62
2018-09-19T09:29:05.879Z,3.10
2018-09-19T09:34:09.244Z,3.33
2018-09-19T09:39:12.604Z,3.47
2018-09-19T09:44:16.539Z,3.40
2018-09-19T09:49:24.872Z,3.73
2018-09-19T10:00:07.514Z,2.73
2018-09-19T10:05:11.109Z,2.90
2018-09-19T10:10:14.473Z,2.90
2018-09-19T10:15:17.890Z,3.10
2018-09-19T10:20:22.333Z,2.60
2018-09-19T10:25:25.921Z,3.00
2018-09-19T10:30:33.135Z,3.02
2018-09-19T10:35:36.558Z,2.80
2018-09-19T10:40:39.815Z,2.80
2018-09-19T10:45:43.353Z,2.50
2018-09-19T10:50:58.530Z,2.90
2018-09-19T10:56:04.574Z,3.08
2018-09-19T11:01:11.412Z,3.33
2018-09-19T11:06:14.772Z,2.77
2018-09-19T11:11:18.223Z,3.12
2018-09-19T11:16:22.252Z,3.17
2018-09-19T11:21:25.686Z,3.00
2018-09-19T11:26:29.087Z,3.13
2018-09-19T11:31:32.596Z,3.20
2018-09-19T11:36:37.036Z,3.20
2018-09-19T11:41:40.767Z,3.17
2018-09-19T11:46:44.273Z,2.90
2018-09-19T11:51:47.676Z,3.00
2018-09-19T11:56:51.098Z,3.05
2018-09-19T12:01:54.397Z,3.20
2018-09-19T12:06:57.725Z,3.62
2018-09-19T12:12:01.122Z,3.10
2018-09-19T12:17:06.289Z,3.00
2018-09-19T12:22:10.022Z,3.10
2018-09-19T12:27:13.362Z,3.00
2018-09-19T12:32:17.440Z,3.08
2018-09-19T12:37:20.800Z,2.87
2018-09-19T12:42:24.218Z,3.10
2018-09-19T12:47:27.617Z,3.20
2018-09-19T12:52:30.929Z,2.80
2018-09-19T12:57:34.306Z,3.15
2018-09-19T13:02:37.768Z,2.63
2018-09-19T13:07:41.163Z,2.90
2018-09-19T13:12:45.507Z,2.77
2018-09-19T13:17:48.849Z,2.80
2018-09-19T13:22:52.855Z,2.87
2018-09-19T13:27:56.209Z,2.90
2018-09-19T13:32:59.581Z,2.90
2018-09-19T13:38:02.986Z,2.87
2018-09-19T13:43:06.425Z,2.70
2018-09-19T13:48:10.017Z,3.00
2018-09-19T13:53:13.387Z,3.20
2018-09-19T13:58:16.740Z,3.10
2018-09-19T14:03:20.159Z,2.80
2018-09-19T14:08:23.557Z,3.00
2018-09-19T14:13:26.977Z,3.50
2018-09-19T14:18:30.388Z,3.10
2018-09-19T14:23:33.844Z,2.83
2018-09-19T14:28:38.773Z,3.30
2018-09-19T14:33:42.083Z,3.00
2018-09-19T14:38:45.574Z,3.08
2018-09-19T14:43:49.061Z,3.20
2018-09-19T14:48:52.616Z,3.10
2018-09-19T14:53:56.003Z,3.13
2018-09-19T14:58:59.572Z,3.00
2018-09-19T15:04:03.042Z,2.95
2018-09-19T15:09:08.431Z,3.08
2018-09-19T15:14:12.013Z,3.13
2018-09-19T15:19:15.368Z,2.70
2018-09-19T15:24:25.128Z,2.80
2018-09-19T15:29:29.239Z,3.17
2018-09-19T15:39:49.689Z,2.80
2018-09-19T15:44:53.916Z,2.90
2018-09-19T15:50:02.883Z,3.22
2018-09-19T15:55:07.177Z,2.90
2018-09-19T16:05:47.897Z,3.25
2018-09-19T16:10:53.521Z,3.20
2018-09-19T16:16:05.784Z,3.12
2018-09-19T16:21:11.363Z,3.47
2018-09-19T16:26:17.113Z,3.67
2018-09-19T16:31:22.271Z,3.50
2018-09-19T16:36:35.634Z,3.80
2018-09-19T16:41:40.029Z,3.40
2018-09-19T16:52:15.049Z,3.30
2018-09-19T16:57:18.675Z,3.40
2018-09-19T17:02:22.300Z,3.50
2018-09-19T17:07:25.723Z,2.90
2018-09-19T17:12:29.020Z,3.40
2018-09-19T17:17:32.307Z,4.70
2018-09-19T17:22:35.642Z,6.17
2018-09-19T17:27:39.100Z,3.65
2018-09-19T17:32:42.508Z,4.17
2018-09-19T17:37:45.861Z,4.28
2018-09-19T17:42:49.412Z,3.60
2018-09-19T17:47:52.967Z,3.80
2018-09-19T17:52:57.023Z,3.80
2018-09-19T17:58:02.244Z,3.30
2018-09-19T18:03:05.883Z,4.00
2018-09-19T18:13:42.447Z,3.70
2018-09-19T18:18:48.081Z,4.20
2018-09-19T18:23:53.434Z,4.17
2018-09-19T18:28:57.709Z,12.20
2018-09-19T18:51:14.938Z,3.83
2018-09-19T18:56:43.151Z,3.93
2018-09-19T19:02:00.693Z,4.20
2018-09-19T19:07:18.153Z,4.30
2018-09-19T19:12:21.783Z,3.90
2018-09-19T19:17:25.138Z,3.80
2018-09-19T19:22:28.524Z,4.20
2018-09-19T19:27:31.860Z,5.00
2018-09-19T19:32:35.203Z,4.50
2018-09-19T19:37:38.810Z,9.27
2018-09-19T19:42:42.199Z,9.98
2018-09-19T19:47:47.396Z,5.50
2018-09-19T19:52:52.932Z,6.53
2018-09-19T19:57:56.260Z,6.80
2018-09-19T20:03:00.312Z,7.08
2018-09-19T20:08:03.787Z,9.23
2018-09-19T20:13:07.575Z,10.50
2018-09-19T20:18:10.961Z,7.83
2018-09-19T20:23:15.235Z,6.03
2018-09-19T20:28:19.583Z,5.50
2018-09-19T20:33:25.001Z,5.65
2018-09-19T20:38:28.398Z,6.10
2018-09-19T20:43:31.866Z,5.50
2018-09-19T20:48:35.360Z,5.53
2018-09-19T20:53:41.474Z,5.70
2018-09-19T20:58:45.385Z,12.18
2018-09-19T21:03:48.771Z,8.23
2018-09-19T21:08:52.442Z,6.75
2018-09-19T21:13:56.181Z,5.78
2018-09-19T21:18:59.658Z,5.40
2018-09-19T21:24:03.020Z,5.92
2018-09-19T21:29:10.387Z,7.77
2018-09-19T21:34:19.718Z,9.13
2018-09-19T21:39:24.614Z,7.37
2018-09-19T21:44:27.993Z,7.10
2018-09-19T21:49:31.485Z,5.90
2018-09-19T21:54:35.160Z,5.30
2018-09-19T21:59:38.542Z,9.05
2018-09-19T22:04:42.108Z,7.47
2018-09-19T22:10:00.339Z,6.65
2018-09-19T22:15:09.282Z,6.20
2018-09-19T22:20:13.841Z,6.33
2018-09-19T22:25:17.260Z,6.10
2018-09-19T22:30:21.077Z,6.00
2018-09-19T22:35:25.859Z,5.83
2018-09-19T22:40:29.878Z,6.22
2018-09-19T22:45:33.289Z,7.00
2018-09-19T22:50:36.659Z,5.87
2018-09-19T22:55:40.104Z,7.00
2018-09-19T23:00:43.474Z,6.20
2018-09-19T23:05:47.203Z,6.50
2018-09-19T23:10:50.685Z,6.50
2018-09-19T23:15:57.401Z,6.47
2018-09-19T23:21:00.688Z,6.90
2018-09-19T23:26:04.597Z,5.80
2018-09-19T23:31:07.889Z,6.58
2018-09-19T23:36:11.604Z,10.63
2018-09-19T23:41:15.048Z,7.05
2018-09-19T23:46:19.394Z,6.93
2018-09-19T23:51:39.414Z,6.40
2018-09-19T23:56:47.226Z,7.22
